sensor_id;sensor_type;location;lat;lon;timestamp;P1;durP1;ratioP1;P2;durP2;ratioP2
57047;SDS011;42934;54.294;18.598;2023-02-20T00:01:58;3.05;;;1.40;;
57047;SDS011;42934;54.294;18.598;2023-02-20T00:04:27;5.05;;;1.08;;
57047;SDS011;42934;54.294;18.598;2023-02-20T00:06:56;3.92;;;1.20;;
57047;SDS011;42934;54.294;18.598;2023-02-20T00:09:26;6.55;;;1.35;;
57047;SDS011;42934;54.294;18.598;2023-02-20T00:11:55;5.10;;;1.17;;
57047;SDS011;42934;54.294;18.598;2023-02-20T00:14:24;4.25;;;1.00;;
57047;SDS011;42934;54.294;18.598;2023-02-20T00:16:55;1.83;;;0.90;;
57047;SDS011;42934;54.294;18.598;2023-02-20T00:19:24;5.40;;;1.13;;
57047;SDS011;42934;54.294;18.598;2023-02-20T00:21:53;2.85;;;0.70;;
57047;SDS011;42934;54.294;18.598;2023-02-20T00:24:22;3.60;;;0.82;;
57047;SDS011;42934;54.294;18.598;2023-02-20T00:26:51;7.28;;;1.40;;
57047;SDS011;42934;54.294;18.598;2023-02-20T00:29:22;6.72;;;1.25;;
57047;SDS011;42934;54.294;18.598;2023-02-20T00:31:51;6.07;;;1.52;;
57047;SDS011;42934;54.294;18.598;2023-02-20T00:34:25;4.13;;;1.17;;
57047;SDS011;42934;54.294;18.598;2023-02-20T00:36:55;3.80;;;0.90;;
57047;SDS011;42934;54.294;18.598;2023-02-20T00:39:25;3.38;;;1.13;;
57047;SDS011;42934;54.294;18.598;2023-02-20T00:41:54;4.00;;;1.17;;
57047;SDS011;42934;54.294;18.598;2023-02-20T00:44:23;5.78;;;1.15;;
57047;SDS011;42934;54.294;18.598;2023-02-20T00:46:53;2.50;;;0.80;;
57047;SDS011;42934;54.294;18.598;2023-02-20T00:49:22;6.43;;;1.00;;
57047;SDS011;42934;54.294;18.598;2023-02-20T00:51:53;7.53;;;1.40;;
57047;SDS011;42934;54.294;18.598;2023-02-20T00:54:22;4.90;;;1.25;;
57047;SDS011;42934;54.294;18.598;2023-02-20T00:56:51;3.83;;;0.90;;
57047;SDS011;42934;54.294;18.598;2023-02-20T00:59:23;2.38;;;0.90;;
57047;SDS011;42934;54.294;18.598;2023-02-20T01:01:52;6.78;;;1.15;;
57047;SDS011;42934;54.294;18.598;2023-02-20T01:04:22;5.93;;;0.97;;
57047;SDS011;42934;54.294;18.598;2023-02-20T01:06:53;5.13;;;0.85;;
57047;SDS011;42934;54.294;18.598;2023-02-20T01:09:22;4.43;;;0.90;;
57047;SDS011;42934;54.294;18.598;2023-02-20T01:11:52;4.07;;;1.10;;
57047;SDS011;42934;54.294;18.598;2023-02-20T01:14:21;2.67;;;1.20;;
57047;SDS011;42934;54.294;18.598;2023-02-20T01:16:51;4.38;;;0.90;;
57047;SDS011;42934;54.294;18.598;2023-02-20T01:19:22;4.60;;;1.23;;
57047;SDS011;42934;54.294;18.598;2023-02-20T01:21:53;4.28;;;0.90;;
57047;SDS011;42934;54.294;18.598;2023-02-20T01:24:22;2.73;;;0.93;;
57047;SDS011;42934;54.294;18.598;2023-02-20T01:26:51;4.18;;;0.90;;
57047;SDS011;42934;54.294;18.598;2023-02-20T01:29:20;4.15;;;1.10;;
57047;SDS011;42934;54.294;18.598;2023-02-20T01:31:50;4.18;;;1.15;;
57047;SDS011;42934;54.294;18.598;2023-02-20T01:34:20;2.50;;;0.75;;
57047;SDS011;42934;54.294;18.598;2023-02-20T01:36:51;3.72;;;1.10;;
57047;SDS011;42934;54.294;18.598;2023-02-20T01:39:26;4.30;;;0.82;;
57047;SDS011;42934;54.294;18.598;2023-02-20T01:41:58;5.80;;;1.00;;
57047;SDS011;42934;54.294;18.598;2023-02-20T01:44:30;5.88;;;1.10;;
57047;SDS011;42934;54.294;18.598;2023-02-20T01:47:01;6.75;;;0.93;;
57047;SDS011;42934;54.294;18.598;2023-02-20T01:49:34;5.47;;;1.08;;
57047;SDS011;42934;54.294;18.598;2023-02-20T01:52:09;2.88;;;0.90;;
57047;SDS011;42934;54.294;18.598;2023-02-20T01:54:43;4.05;;;1.00;;
57047;SDS011;42934;54.294;18.598;2023-02-20T01:57:17;4.80;;;1.10;;
57047;SDS011;42934;54.294;18.598;2023-02-20T01:59:49;3.72;;;1.13;;
57047;SDS011;42934;54.294;18.598;2023-02-20T02:02:23;3.72;;;1.13;;
57047;SDS011;42934;54.294;18.598;2023-02-20T02:04:55;6.18;;;1.13;;
57047;SDS011;42934;54.294;18.598;2023-02-20T02:07:26;3.85;;;1.10;;
57047;SDS011;42934;54.294;18.598;2023-02-20T02:10:00;5.75;;;1.27;;
57047;SDS011;42934;54.294;18.598;2023-02-20T02:12:34;4.75;;;1.40;;
57047;SDS011;42934;54.294;18.598;2023-02-20T02:17:47;4.93;;;1.60;;
57047;SDS011;42934;54.294;18.598;2023-02-20T02:29:50;5.38;;;1.30;;
57047;SDS011;42934;54.294;18.598;2023-02-20T02:32:57;5.72;;;1.33;;
57047;SDS011;42934;54.294;18.598;2023-02-20T02:38:55;5.65;;;1.52;;
57047;SDS011;42934;54.294;18.598;2023-02-20T02:41:32;2.28;;;1.15;;
57047;SDS011;42934;54.294;18.598;2023-02-20T02:44:10;5.35;;;1.40;;
57047;SDS011;42934;54.294;18.598;2023-02-20T02:46:46;4.07;;;1.30;;
57047;SDS011;42934;54.294;18.598;2023-02-20T02:49:23;4.32;;;1.23;;
57047;SDS011;42934;54.294;18.598;2023-02-20T02:51:58;5.88;;;1.38;;
57047;SDS011;42934;54.294;18.598;2023-02-20T02:54:31;3.85;;;1.33;;
57047;SDS011;42934;54.294;18.598;2023-02-20T02:57:17;2.78;;;1.15;;
57047;SDS011;42934;54.294;18.598;2023-02-20T02:59:50;5.68;;;1.50;;
57047;SDS011;42934;54.294;18.598;2023-02-20T03:02:23;9.77;;;1.58;;
57047;SDS011;42934;54.294;18.598;2023-02-20T03:04:56;2.90;;;1.25;;
57047;SDS011;42934;54.294;18.598;2023-02-20T03:07:27;6.35;;;1.50;;
57047;SDS011;42934;54.294;18.598;2023-02-20T03:10:02;4.43;;;1.33;;
57047;SDS011;42934;54.294;18.598;2023-02-20T03:12:35;5.40;;;1.60;;
57047;SDS011;42934;54.294;18.598;2023-02-20T03:15:10;3.92;;;1.48;;
57047;SDS011;42934;54.294;18.598;2023-02-20T03:18:10;6.38;;;2.00;;
57047;SDS011;42934;54.294;18.598;2023-02-20T03:35:05;3.40;;;1.10;;
57047;SDS011;42934;54.294;18.598;2023-02-20T03:37:54;2.63;;;0.90;;
57047;SDS011;42934;54.294;18.598;2023-02-20T03:40:43;3.47;;;1.05;;
57047;SDS011;42934;54.294;18.598;2023-02-20T03:43:31;4.00;;;1.42;;
57047;SDS011;42934;54.294;18.598;2023-02-20T03:46:04;4.05;;;1.40;;
57047;SDS011;42934;54.294;18.598;2023-02-20T03:48:41;6.72;;;0.98;;
57047;SDS011;42934;54.294;18.598;2023-02-20T03:51:17;2.60;;;1.00;;
57047;SDS011;42934;54.294;18.598;2023-02-20T03:53:53;3.70;;;1.20;;
57047;SDS011;42934;54.294;18.598;2023-02-20T04:01:25;5.38;;;1.05;;
57047;SDS011;42934;54.294;18.598;2023-02-20T04:03:55;3.67;;;0.85;;
57047;SDS011;42934;54.294;18.598;2023-02-20T04:06:29;4.97;;;1.15;;
57047;SDS011;42934;54.294;18.598;2023-02-20T04:09:02;3.45;;;1.23;;
57047;SDS011;42934;54.294;18.598;2023-02-20T04:11:37;3.65;;;1.15;;
57047;SDS011;42934;54.294;18.598;2023-02-20T04:14:09;2.35;;;1.10;;
57047;SDS011;42934;54.294;18.598;2023-02-20T04:16:41;5.60;;;1.25;;
57047;SDS011;42934;54.294;18.598;2023-02-20T04:19:14;4.18;;;1.20;;
57047;SDS011;42934;54.294;18.598;2023-02-20T04:21:47;1.88;;;1.23;;
57047;SDS011;42934;54.294;18.598;2023-02-20T04:24:21;3.65;;;1.38;;
57047;SDS011;42934;54.294;18.598;2023-02-20T04:26:54;4.55;;;1.30;;
57047;SDS011;42934;54.294;18.598;2023-02-20T04:29:25;3.72;;;1.50;;
57047;SDS011;42934;54.294;18.598;2023-02-20T04:31:56;4.15;;;1.33;;
57047;SDS011;42934;54.294;18.598;2023-02-20T04:34:31;4.35;;;1.98;;
57047;SDS011;42934;54.294;18.598;2023-02-20T04:37:06;3.30;;;1.50;;
57047;SDS011;42934;54.294;18.598;2023-02-20T04:39:37;2.83;;;1.38;;
57047;SDS011;42934;54.294;18.598;2023-02-20T04:42:06;6.05;;;1.40;;
57047;SDS011;42934;54.294;18.598;2023-02-20T04:44:36;3.85;;;1.48;;
57047;SDS011;42934;54.294;18.598;2023-02-20T04:47:07;6.47;;;1.60;;
57047;SDS011;42934;54.294;18.598;2023-02-20T04:49:41;6.03;;;2.17;;
57047;SDS011;42934;54.294;18.598;2023-02-20T04:52:15;1.90;;;1.13;;
57047;SDS011;42934;54.294;18.598;2023-02-20T04:54:44;2.78;;;1.42;;
57047;SDS011;42934;54.294;18.598;2023-02-20T04:57:15;5.05;;;1.45;;
57047;SDS011;42934;54.294;18.598;2023-02-20T04:59:45;3.33;;;1.30;;
57047;SDS011;42934;54.294;18.598;2023-02-20T05:02:16;2.55;;;1.75;;
57047;SDS011;42934;54.294;18.598;2023-02-20T05:04:45;8.27;;;1.85;;
57047;SDS011;42934;54.294;18.598;2023-02-20T05:07:16;4.43;;;1.48;;
57047;SDS011;42934;54.294;18.598;2023-02-20T05:09:46;3.80;;;1.45;;
57047;SDS011;42934;54.294;18.598;2023-02-20T05:12:15;4.95;;;1.90;;
57047;SDS011;42934;54.294;18.598;2023-02-20T05:14:44;2.50;;;1.23;;
57047;SDS011;42934;54.294;18.598;2023-02-20T05:17:13;2.40;;;1.35;;
57047;SDS011;42934;54.294;18.598;2023-02-20T05:19:43;3.57;;;1.60;;
57047;SDS011;42934;54.294;18.598;2023-02-20T05:22:12;3.75;;;1.67;;
57047;SDS011;42934;54.294;18.598;2023-02-20T05:24:48;6.90;;;1.70;;
57047;SDS011;42934;54.294;18.598;2023-02-20T05:27:19;4.88;;;1.35;;
57047;SDS011;42934;54.294;18.598;2023-02-20T05:29:49;4.25;;;1.65;;
57047;SDS011;42934;54.294;18.598;2023-02-20T05:32:20;5.78;;;1.75;;
57047;SDS011;42934;54.294;18.598;2023-02-20T05:34:51;3.72;;;1.70;;
57047;SDS011;42934;54.294;18.598;2023-02-20T05:37:21;3.13;;;1.47;;
57047;SDS011;42934;54.294;18.598;2023-02-20T05:39:53;2.70;;;1.50;;
57047;SDS011;42934;54.294;18.598;2023-02-20T05:42:22;4.65;;;1.70;;
57047;SDS011;42934;54.294;18.598;2023-02-20T05:44:52;1.95;;;1.55;;
57047;SDS011;42934;54.294;18.598;2023-02-20T05:47:21;5.55;;;1.52;;
57047;SDS011;42934;54.294;18.598;2023-02-20T05:49:50;5.00;;;1.70;;
57047;SDS011;42934;54.294;18.598;2023-02-20T05:52:19;3.30;;;1.65;;
57047;SDS011;42934;54.294;18.598;2023-02-20T05:54:48;2.90;;;1.30;;
57047;SDS011;42934;54.294;18.598;2023-02-20T05:57:19;4.60;;;1.83;;
57047;SDS011;42934;54.294;18.598;2023-02-20T05:59:48;4.45;;;1.55;;
57047;SDS011;42934;54.294;18.598;2023-02-20T06:02:17;4.20;;;1.60;;
57047;SDS011;42934;54.294;18.598;2023-02-20T06:04:46;2.87;;;1.23;;
57047;SDS011;42934;54.294;18.598;2023-02-20T06:07:15;3.20;;;1.42;;
57047;SDS011;42934;54.294;18.598;2023-02-20T06:09:45;2.37;;;1.57;;
57047;SDS011;42934;54.294;18.598;2023-02-20T06:12:15;3.95;;;1.60;;
57047;SDS011;42934;54.294;18.598;2023-02-20T06:14:46;4.70;;;1.70;;
57047;SDS011;42934;54.294;18.598;2023-02-20T06:17:15;7.40;;;1.75;;
57047;SDS011;42934;54.294;18.598;2023-02-20T06:19:44;1.90;;;1.50;;
57047;SDS011;42934;54.294;18.598;2023-02-20T06:22:14;4.40;;;1.80;;
57047;SDS011;42934;54.294;18.598;2023-02-20T06:24:44;5.57;;;1.80;;
57047;SDS011;42934;54.294;18.598;2023-02-20T06:27:14;3.43;;;2.10;;
57047;SDS011;42934;54.294;18.598;2023-02-20T06:29:46;2.95;;;1.67;;
57047;SDS011;42934;54.294;18.598;2023-02-20T06:32:16;5.28;;;2.10;;
57047;SDS011;42934;54.294;18.598;2023-02-20T06:34:45;6.03;;;2.07;;
57047;SDS011;42934;54.294;18.598;2023-02-20T06:37:14;3.58;;;1.92;;
57047;SDS011;42934;54.294;18.598;2023-02-20T06:39:44;3.60;;;1.98;;
57047;SDS011;42934;54.294;18.598;2023-02-20T06:42:15;11.20;;;2.20;;
57047;SDS011;42934;54.294;18.598;2023-02-20T06:44:44;2.23;;;1.67;;
57047;SDS011;42934;54.294;18.598;2023-02-20T06:47:14;3.65;;;2.25;;
57047;SDS011;42934;54.294;18.598;2023-02-20T06:49:44;1.50;;;1.35;;
57047;SDS011;42934;54.294;18.598;2023-02-20T06:52:13;3.28;;;1.77;;
57047;SDS011;42934;54.294;18.598;2023-02-20T06:54:42;2.17;;;1.90;;
57047;SDS011;42934;54.294;18.598;2023-02-20T06:57:12;2.22;;;1.98;;
57047;SDS011;42934;54.294;18.598;2023-02-20T06:59:43;6.57;;;2.28;;
57047;SDS011;42934;54.294;18.598;2023-02-20T07:02:15;3.35;;;2.17;;
57047;SDS011;42934;54.294;18.598;2023-02-20T07:04:46;2.72;;;2.00;;
57047;SDS011;42934;54.294;18.598;2023-02-20T07:07:16;4.82;;;2.05;;
57047;SDS011;42934;54.294;18.598;2023-02-20T07:09:45;4.70;;;2.30;;
57047;SDS011;42934;54.294;18.598;2023-02-20T07:12:14;3.35;;;1.92;;
57047;SDS011;42934;54.294;18.598;2023-02-20T07:14:44;3.75;;;2.30;;
57047;SDS011;42934;54.294;18.598;2023-02-20T07:17:14;3.50;;;2.53;;
57047;SDS011;42934;54.294;18.598;2023-02-20T07:19:43;6.78;;;2.42;;
57047;SDS011;42934;54.294;18.598;2023-02-20T07:22:12;3.78;;;2.85;;
57047;SDS011;42934;54.294;18.598;2023-02-20T07:24:42;4.70;;;2.70;;
57047;SDS011;42934;54.294;18.598;2023-02-20T07:27:11;2.80;;;2.13;;
57047;SDS011;42934;54.294;18.598;2023-02-20T07:29:40;3.03;;;2.40;;
57047;SDS011;42934;54.294;18.598;2023-02-20T07:32:13;3.25;;;2.10;;
57047;SDS011;42934;54.294;18.598;2023-02-20T07:34:46;2.88;;;2.20;;
57047;SDS011;42934;54.294;18.598;2023-02-20T07:37:30;2.33;;;2.00;;
57047;SDS011;42934;54.294;18.598;2023-02-20T07:40:00;2.22;;;2.03;;
57047;SDS011;42934;54.294;18.598;2023-02-20T07:42:30;2.92;;;1.92;;
57047;SDS011;42934;54.294;18.598;2023-02-20T07:45:08;6.35;;;1.90;;
57047;SDS011;42934;54.294;18.598;2023-02-20T07:52:38;2.67;;;1.52;;
57047;SDS011;42934;54.294;18.598;2023-02-20T07:55:08;3.37;;;1.57;;
57047;SDS011;42934;54.294;18.598;2023-02-20T07:57:39;2.53;;;1.30;;
57047;SDS011;42934;54.294;18.598;2023-02-20T08:00:12;2.38;;;1.40;;
57047;SDS011;42934;54.294;18.598;2023-02-20T08:02:43;2.22;;;1.77;;
57047;SDS011;42934;54.294;18.598;2023-02-20T08:05:13;2.80;;;1.33;;
57047;SDS011;42934;54.294;18.598;2023-02-20T08:07:45;2.75;;;1.33;;
57047;SDS011;42934;54.294;18.598;2023-02-20T08:10:17;2.10;;;1.45;;
57047;SDS011;42934;54.294;18.598;2023-02-20T08:12:47;2.00;;;1.55;;
57047;SDS011;42934;54.294;18.598;2023-02-20T08:17:48;2.22;;;1.42;;
57047;SDS011;42934;54.294;18.598;2023-02-20T08:20:19;2.22;;;1.63;;
57047;SDS011;42934;54.294;18.598;2023-02-20T08:22:49;3.15;;;1.70;;
57047;SDS011;42934;54.294;18.598;2023-02-20T08:25:18;1.95;;;1.60;;
57047;SDS011;42934;54.294;18.598;2023-02-20T08:27:48;1.95;;;1.42;;
57047;SDS011;42934;54.294;18.598;2023-02-20T08:30:18;2.28;;;1.60;;
57047;SDS011;42934;54.294;18.598;2023-02-20T08:32:51;2.25;;;1.50;;
57047;SDS011;42934;54.294;18.598;2023-02-20T08:35:22;2.28;;;1.30;;
57047;SDS011;42934;54.294;18.598;2023-02-20T08:37:51;3.22;;;1.70;;
57047;SDS011;42934;54.294;18.598;2023-02-20T08:40:21;2.67;;;1.50;;
57047;SDS011;42934;54.294;18.598;2023-02-20T08:42:50;2.42;;;1.40;;
57047;SDS011;42934;54.294;18.598;2023-02-20T08:45:19;1.60;;;1.40;;
57047;SDS011;42934;54.294;18.598;2023-02-20T08:47:55;2.50;;;1.40;;
57047;SDS011;42934;54.294;18.598;2023-02-20T08:50:27;2.47;;;1.38;;
57047;SDS011;42934;54.294;18.598;2023-02-20T08:52:56;1.50;;;1.40;;
57047;SDS011;42934;54.294;18.598;2023-02-20T08:55:26;1.67;;;1.20;;
57047;SDS011;42934;54.294;18.598;2023-02-20T08:57:55;2.13;;;1.23;;
57047;SDS011;42934;54.294;18.598;2023-02-20T09:00:25;2.40;;;1.17;;
57047;SDS011;42934;54.294;18.598;2023-02-20T09:02:55;2.20;;;1.50;;
57047;SDS011;42934;54.294;18.598;2023-02-20T09:05:50;1.92;;;1.17;;
57047;SDS011;42934;54.294;18.598;2023-02-20T09:31:53;3.15;;;2.05;;
57047;SDS011;42934;54.294;18.598;2023-02-20T09:34:23;2.13;;;1.90;;
57047;SDS011;42934;54.294;18.598;2023-02-20T09:36:52;3.33;;;2.10;;
57047;SDS011;42934;54.294;18.598;2023-02-20T09:39:21;2.53;;;2.10;;
57047;SDS011;42934;54.294;18.598;2023-02-20T09:41:55;3.50;;;2.40;;
57047;SDS011;42934;54.294;18.598;2023-02-20T09:44:45;4.68;;;2.40;;
57047;SDS011;42934;54.294;18.598;2023-02-20T09:47:33;2.90;;;2.33;;
57047;SDS011;42934;54.294;18.598;2023-02-20T09:50:17;4.10;;;2.72;;
57047;SDS011;42934;54.294;18.598;2023-02-20T09:52:55;4.05;;;2.80;;
57047;SDS011;42934;54.294;18.598;2023-02-20T09:55:33;4.32;;;2.83;;
57047;SDS011;42934;54.294;18.598;2023-02-20T09:58:05;5.03;;;2.65;;
57047;SDS011;42934;54.294;18.598;2023-02-20T10:00:44;4.53;;;3.40;;
57047;SDS011;42934;54.294;18.598;2023-02-20T10:03:18;4.95;;;3.83;;
57047;SDS011;42934;54.294;18.598;2023-02-20T10:05:52;4.07;;;3.22;;
57047;SDS011;42934;54.294;18.598;2023-02-20T10:08:22;4.28;;;3.42;;
57047;SDS011;42934;54.294;18.598;2023-02-20T10:10:52;5.40;;;4.00;;
57047;SDS011;42934;54.294;18.598;2023-02-20T10:13:36;7.28;;;3.90;;
57047;SDS011;42934;54.294;18.598;2023-02-20T10:16:27;6.95;;;3.97;;
57047;SDS011;42934;54.294;18.598;2023-02-20T10:19:09;5.03;;;3.80;;
57047;SDS011;42934;54.294;18.598;2023-02-20T10:21:51;4.45;;;3.35;;
57047;SDS011;42934;54.294;18.598;2023-02-20T10:24:37;5.55;;;3.83;;
57047;SDS011;42934;54.294;18.598;2023-02-20T10:27:19;6.97;;;4.40;;
57047;SDS011;42934;54.294;18.598;2023-02-20T10:29:54;5.72;;;4.28;;
57047;SDS011;42934;54.294;18.598;2023-02-20T10:32:25;8.32;;;5.10;;
57047;SDS011;42934;54.294;18.598;2023-02-20T10:35:01;9.60;;;5.60;;
57047;SDS011;42934;54.294;18.598;2023-02-20T10:37:36;8.35;;;4.85;;
57047;SDS011;42934;54.294;18.598;2023-02-20T10:40:16;8.75;;;6.10;;
57047;SDS011;42934;54.294;18.598;2023-02-20T10:42:52;9.68;;;5.63;;
57047;SDS011;42934;54.294;18.598;2023-02-20T10:45:30;9.38;;;5.78;;
57047;SDS011;42934;54.294;18.598;2023-02-20T10:48:06;8.30;;;5.50;;
57047;SDS011;42934;54.294;18.598;2023-02-20T10:50:43;7.93;;;5.88;;
57047;SDS011;42934;54.294;18.598;2023-02-20T10:53:20;9.45;;;6.07;;
57047;SDS011;42934;54.294;18.598;2023-02-20T10:55:55;9.73;;;6.45;;
57047;SDS011;42934;54.294;18.598;2023-02-20T10:58:31;9.57;;;5.78;;
57047;SDS011;42934;54.294;18.598;2023-02-20T11:01:04;9.57;;;6.30;;
57047;SDS011;42934;54.294;18.598;2023-02-20T11:03:39;9.05;;;5.55;;
57047;SDS011;42934;54.294;18.598;2023-02-20T11:06:17;9.55;;;6.35;;
57047;SDS011;42934;54.294;18.598;2023-02-20T11:08:49;9.13;;;5.80;;
57047;SDS011;42934;54.294;18.598;2023-02-20T11:11:23;10.13;;;5.60;;
57047;SDS011;42934;54.294;18.598;2023-02-20T11:13:57;9.05;;;5.30;;
57047;SDS011;42934;54.294;18.598;2023-02-20T11:16:28;7.65;;;5.25;;
57047;SDS011;42934;54.294;18.598;2023-02-20T11:19:05;9.38;;;4.70;;
57047;SDS011;42934;54.294;18.598;2023-02-20T11:21:42;8.13;;;4.80;;
57047;SDS011;42934;54.294;18.598;2023-02-20T11:24:18;7.05;;;4.35;;
57047;SDS011;42934;54.294;18.598;2023-02-20T11:27:00;8.20;;;4.40;;
57047;SDS011;42934;54.294;18.598;2023-02-20T11:29:33;6.50;;;4.22;;
57047;SDS011;42934;54.294;18.598;2023-02-20T11:32:23;7.05;;;4.40;;
57047;SDS011;42934;54.294;18.598;2023-02-20T11:35:01;6.28;;;4.10;;
57047;SDS011;42934;54.294;18.598;2023-02-20T11:44:05;5.80;;;4.03;;
57047;SDS011;42934;54.294;18.598;2023-02-20T11:46:44;14.43;;;4.93;;
57047;SDS011;42934;54.294;18.598;2023-02-20T11:49:24;9.65;;;5.03;;
57047;SDS011;42934;54.294;18.598;2023-02-20T11:52:05;8.88;;;5.35;;
57047;SDS011;42934;54.294;18.598;2023-02-20T11:54:37;11.30;;;5.53;;
57047;SDS011;42934;54.294;18.598;2023-02-20T11:57:15;13.43;;;6.00;;
57047;SDS011;42934;54.294;18.598;2023-02-20T11:59:48;8.88;;;5.57;;
57047;SDS011;42934;54.294;18.598;2023-02-20T12:02:23;12.70;;;6.03;;
57047;SDS011;42934;54.294;18.598;2023-02-20T12:05:04;11.45;;;6.45;;
57047;SDS011;42934;54.294;18.598;2023-02-20T12:07:39;13.95;;;6.70;;
57047;SDS011;42934;54.294;18.598;2023-02-20T12:13:12;14.75;;;6.80;;
57047;SDS011;42934;54.294;18.598;2023-02-20T12:15:44;12.82;;;6.97;;
57047;SDS011;42934;54.294;18.598;2023-02-20T12:18:27;16.13;;;6.05;;
57047;SDS011;42934;54.294;18.598;2023-02-20T12:21:22;14.90;;;6.93;;
57047;SDS011;42934;54.294;18.598;2023-02-20T12:24:01;16.50;;;7.57;;
57047;SDS011;42934;54.294;18.598;2023-02-20T12:26:50;12.63;;;6.43;;
57047;SDS011;42934;54.294;18.598;2023-02-20T12:29:32;12.05;;;6.32;;
57047;SDS011;42934;54.294;18.598;2023-02-20T12:32:21;12.85;;;5.80;;
57047;SDS011;42934;54.294;18.598;2023-02-20T12:35:05;9.65;;;5.78;;
57047;SDS011;42934;54.294;18.598;2023-02-20T12:37:55;11.98;;;5.53;;
57047;SDS011;42934;54.294;18.598;2023-02-20T12:40:40;13.35;;;5.50;;
57047;SDS011;42934;54.294;18.598;2023-02-20T12:43:24;9.30;;;4.95;;
57047;SDS011;42934;54.294;18.598;2023-02-20T12:46:01;11.93;;;5.43;;
57047;SDS011;42934;54.294;18.598;2023-02-20T12:48:39;10.90;;;5.25;;
57047;SDS011;42934;54.294;18.598;2023-02-20T12:51:20;9.02;;;4.50;;
57047;SDS011;42934;54.294;18.598;2023-02-20T12:54:02;8.52;;;4.63;;
57047;SDS011;42934;54.294;18.598;2023-02-20T12:56:48;9.30;;;4.60;;
57047;SDS011;42934;54.294;18.598;2023-02-20T12:59:27;7.10;;;4.07;;
57047;SDS011;42934;54.294;18.598;2023-02-20T13:02:05;9.80;;;4.53;;
57047;SDS011;42934;54.294;18.598;2023-02-20T13:04:56;8.63;;;4.07;;
57047;SDS011;42934;54.294;18.598;2023-02-20T13:07:28;5.75;;;3.63;;
57047;SDS011;42934;54.294;18.598;2023-02-20T13:10:02;7.18;;;3.58;;
57047;SDS011;42934;54.294;18.598;2023-02-20T13:12:35;6.97;;;3.70;;
57047;SDS011;42934;54.294;18.598;2023-02-20T13:15:10;6.75;;;3.80;;
57047;SDS011;42934;54.294;18.598;2023-02-20T13:17:51;7.45;;;3.75;;
57047;SDS011;42934;54.294;18.598;2023-02-20T13:20:25;8.20;;;3.67;;
57047;SDS011;42934;54.294;18.598;2023-02-20T13:23:00;5.78;;;3.30;;
57047;SDS011;42934;54.294;18.598;2023-02-20T13:25:34;6.53;;;3.20;;
57047;SDS011;42934;54.294;18.598;2023-02-20T13:28:21;7.32;;;3.17;;
57047;SDS011;42934;54.294;18.598;2023-02-20T13:31:08;5.55;;;2.90;;
57047;SDS011;42934;54.294;18.598;2023-02-20T13:33:46;6.20;;;3.15;;
57047;SDS011;42934;54.294;18.598;2023-02-20T13:36:37;4.97;;;3.00;;
57047;SDS011;42934;54.294;18.598;2023-02-20T13:44:53;4.53;;;2.58;;
57047;SDS011;42934;54.294;18.598;2023-02-20T13:47:31;5.93;;;2.92;;
57047;SDS011;42934;54.294;18.598;2023-02-20T13:53:01;3.35;;;2.13;;
57047;SDS011;42934;54.294;18.598;2023-02-20T13:55:32;4.20;;;3.15;;
57047;SDS011;42934;54.294;18.598;2023-02-20T13:58:04;4.72;;;2.60;;
57047;SDS011;42934;54.294;18.598;2023-02-20T14:00:46;4.68;;;2.97;;
57047;SDS011;42934;54.294;18.598;2023-02-20T14:03:20;3.60;;;2.15;;
57047;SDS011;42934;54.294;18.598;2023-02-20T14:08:40;5.88;;;2.35;;
57047;SDS011;42934;54.294;18.598;2023-02-20T14:11:11;4.70;;;2.50;;
57047;SDS011;42934;54.294;18.598;2023-02-20T14:13:42;3.40;;;2.40;;
57047;SDS011;42934;54.294;18.598;2023-02-20T14:16:26;4.15;;;2.50;;
57047;SDS011;42934;54.294;18.598;2023-02-20T14:18:58;4.60;;;2.47;;
57047;SDS011;42934;54.294;18.598;2023-02-20T14:21:30;3.42;;;2.50;;
57047;SDS011;42934;54.294;18.598;2023-02-20T14:24:10;3.58;;;2.17;;
57047;SDS011;42934;54.294;18.598;2023-02-20T14:26:44;3.20;;;2.00;;
57047;SDS011;42934;54.294;18.598;2023-02-20T14:29:18;4.53;;;2.15;;
57047;SDS011;42934;54.294;18.598;2023-02-20T14:31:50;5.57;;;2.05;;
57047;SDS011;42934;54.294;18.598;2023-02-20T14:34:23;5.15;;;2.47;;
57047;SDS011;42934;54.294;18.598;2023-02-20T14:37:02;3.40;;;2.03;;
57047;SDS011;42934;54.294;18.598;2023-02-20T14:39:41;4.15;;;2.05;;
57047;SDS011;42934;54.294;18.598;2023-02-20T14:42:19;4.07;;;1.90;;
57047;SDS011;42934;54.294;18.598;2023-02-20T14:44:52;3.67;;;1.80;;
57047;SDS011;42934;54.294;18.598;2023-02-20T14:47:27;4.63;;;1.80;;
57047;SDS011;42934;54.294;18.598;2023-02-20T14:52:41;2.67;;;1.55;;
57047;SDS011;42934;54.294;18.598;2023-02-20T14:55:14;4.07;;;1.75;;
57047;SDS011;42934;54.294;18.598;2023-02-20T14:57:47;3.70;;;1.98;;
57047;SDS011;42934;54.294;18.598;2023-02-20T15:00:24;4.13;;;1.63;;
57047;SDS011;42934;54.294;18.598;2023-02-20T15:03:05;2.92;;;1.48;;
57047;SDS011;42934;54.294;18.598;2023-02-20T15:05:57;2.95;;;1.60;;
57047;SDS011;42934;54.294;18.598;2023-02-20T15:08:30;3.00;;;1.52;;
57047;SDS011;42934;54.294;18.598;2023-02-20T15:11:04;2.20;;;1.40;;
57047;SDS011;42934;54.294;18.598;2023-02-20T15:13:36;2.88;;;1.50;;
57047;SDS011;42934;54.294;18.598;2023-02-20T15:16:11;2.08;;;1.27;;
57047;SDS011;42934;54.294;18.598;2023-02-20T15:18:45;2.88;;;1.20;;
57047;SDS011;42934;54.294;18.598;2023-02-20T15:21:30;3.30;;;1.40;;
57047;SDS011;42934;54.294;18.598;2023-02-20T15:24:10;2.72;;;1.25;;
57047;SDS011;42934;54.294;18.598;2023-02-20T15:27:05;7.20;;;3.72;;
57047;SDS011;42934;54.294;18.598;2023-02-20T15:29:35;12.63;;;6.22;;
57047;SDS011;42934;54.294;18.598;2023-02-20T15:32:05;6.03;;;3.33;;
57047;SDS011;42934;54.294;18.598;2023-02-20T15:34:42;7.18;;;3.20;;
57047;SDS011;42934;54.294;18.598;2023-02-20T15:37:15;6.22;;;3.63;;
57047;SDS011;42934;54.294;18.598;2023-02-20T15:40:05;5.38;;;3.20;;
57047;SDS011;42934;54.294;18.598;2023-02-20T15:42:36;6.55;;;2.92;;
57047;SDS011;42934;54.294;18.598;2023-02-20T15:45:06;4.50;;;1.92;;
57047;SDS011;42934;54.294;18.598;2023-02-20T15:47:39;7.50;;;3.20;;
57047;SDS011;42934;54.294;18.598;2023-02-20T15:50:08;12.55;;;6.57;;
57047;SDS011;42934;54.294;18.598;2023-02-20T15:52:38;7.03;;;3.28;;
57047;SDS011;42934;54.294;18.598;2023-02-20T15:55:08;8.80;;;4.53;;
57047;SDS011;42934;54.294;18.598;2023-02-20T15:57:42;7.50;;;3.67;;
57047;SDS011;42934;54.294;18.598;2023-02-20T16:00:16;7.20;;;3.83;;
57047;SDS011;42934;54.294;18.598;2023-02-20T16:02:48;8.45;;;4.70;;
57047;SDS011;42934;54.294;18.598;2023-02-20T16:05:18;7.30;;;4.10;;
57047;SDS011;42934;54.294;18.598;2023-02-20T16:07:48;4.78;;;2.63;;
57047;SDS011;42934;54.294;18.598;2023-02-20T16:10:18;5.50;;;3.30;;
57047;SDS011;42934;54.294;18.598;2023-02-20T16:12:50;5.28;;;2.30;;
57047;SDS011;42934;54.294;18.598;2023-02-20T16:15:22;5.47;;;2.45;;
57047;SDS011;42934;54.294;18.598;2023-02-20T16:17:52;16.13;;;5.40;;
57047;SDS011;42934;54.294;18.598;2023-02-20T16:20:22;9.10;;;3.75;;
57047;SDS011;42934;54.294;18.598;2023-02-20T16:22:57;11.00;;;3.40;;
57047;SDS011;42934;54.294;18.598;2023-02-20T16:25:26;3.40;;;1.90;;
57047;SDS011;42934;54.294;18.598;2023-02-20T16:27:55;5.53;;;2.05;;
57047;SDS011;42934;54.294;18.598;2023-02-20T16:30:26;3.83;;;2.22;;
57047;SDS011;42934;54.294;18.598;2023-02-20T16:32:59;5.28;;;2.67;;
57047;SDS011;42934;54.294;18.598;2023-02-20T16:35:30;16.27;;;5.07;;
57047;SDS011;42934;54.294;18.598;2023-02-20T16:38:00;8.98;;;3.33;;
57047;SDS011;42934;54.294;18.598;2023-02-20T16:40:29;8.60;;;2.53;;
57047;SDS011;42934;54.294;18.598;2023-02-20T16:42:58;6.32;;;2.80;;